Terminal Aerodrome Forecast
Issued by NWS Albany, NY

Home | Current Version | Previous Version | Text Only | Print | Product List | Glossary On
Versions: 1 2 3 4 5 6 7 8 9 10 11 12 13 14 15 16 17 18 19 20 21
000
FTUS41 KALY 291910 AAA
TAFGFL
TAF AMD
KGFL 291910Z 2919/3018 29010G17KT P6SM BKN070 OVC200
     FM300300 32006KT P6SM BKN200
     FM300800 02003KT P6SM SCT250
     FM301500 06006KT P6SM BKN080=

USA.gov is the U.S. government's official web portal to all federal, state and local government web resources and services.